Time;durP1;ratioP1;P1;durP2;ratioP2;P2;SDS_P1;SDS_P2;PMS_P1;PMS_P2;Temp;Humidity;BMP_temperature;BMP_pressure;BME280_temperature;BME280_humidity;BME280_pressure;Samples;Min_cycle;Max_cycle;Signal;HPM_P1;HPM_P2
2021/10/29 01:09:26;;;;;;;18.50;15.73;;;9.60;98.30;;;;;;4946325;23;20526;-85
2021/10/29 01:11:33;;;;;;;15.50;13.87;;;9.50;98.30;;;;;;4953325;23;20470;-85
2021/10/29 01:13:56;;;;;;;17.53;15.63;;;9.50;98.30;;;;;;4953076;24;20464;-86
2021/10/29 01:16:16;;;;;;;20.37;14.97;;;9.60;98.30;;;;;;5077487;23;21041;-85
2021/10/29 01:18:22;;;;;;;19.67;15.73;;;9.60;98.30;;;;;;5108581;23;20427;-85
2021/10/29 21:58:56;;;;;;;12.57;10.70;;;11.50;98.30;;;;;;4908069;24;20431;-83
2021/10/29 22:01:00;;;;;;;12.77;9.50;;;11.50;98.30;;;;;;4957582;23;20456;-83
2021/10/29 22:03:05;;;;;;;12.90;9.63;;;11.50;98.30;;;;;;5132482;23;20511;-82
2021/10/29 22:05:09;;;;;;;19.03;10.87;;;11.40;98.30;;;;;;5183347;22;20529;-81
2021/10/29 22:07:12;;;;;;;15.07;11.07;;;11.40;98.30;;;;;;5228440;22;20424;-82
2021/10/29 22:09:15;;;;;;;13.17;9.90;;;11.40;98.30;;;;;;5219148;22;20461;-81
2021/10/29 22:11:20;;;;;;;17.80;9.83;;;11.40;98.30;;;;;;5227819;22;20750;-82
2021/10/29 22:13:23;;;;;;;12.23;9.70;;;11.40;98.30;;;;;;5227979;22;20415;-82
2021/10/29 22:15:27;;;;;;;14.43;9.87;;;11.50;98.30;;;;;;5218928;22;20472;-82
2021/10/29 22:17:30;;;;;;;12.50;10.23;;;11.40;98.30;;;;;;5226671;22;20414;-83
2021/10/29 22:19:33;;;;;;;12.33;10.17;;;11.40;98.30;;;;;;5226496;22;20740;-82
2021/10/29 22:21:36;;;;;;;12.10;9.40;;;11.40;98.30;;;;;;5226370;22;20502;-82
2021/10/29 22:23:40;;;;;;;14.60;10.57;;;11.40;98.30;;;;;;5217112;22;20947;-83
2021/10/29 22:25:49;;;;;;;12.67;9.73;;;11.30;98.30;;;;;;5226679;22;20450;-82
2021/10/29 22:27:52;;;;;;;13.40;9.83;;;11.30;98.30;;;;;;5226546;22;20404;-83
2021/10/29 22:29:55;;;;;;;12.60;10.27;;;11.30;98.30;;;;;;5218017;22;20427;-82
2021/10/29 22:31:59;;;;;;;13.53;9.80;;;11.30;98.30;;;;;;5217524;22;20451;-83
2021/10/29 22:34:03;;;;;;;13.13;9.50;;;11.40;98.30;;;;;;5218115;22;20422;-83
2021/10/29 22:36:06;;;;;;;13.70;10.37;;;11.40;98.30;;;;;;5226375;22;20445;-83
2021/10/29 22:38:11;;;;;;;13.30;9.23;;;11.40;98.30;;;;;;5225855;22;20422;-83
2021/10/29 22:40:14;;;;;;;13.93;10.97;;;11.40;98.30;;;;;;5226806;22;20426;-82
2021/10/29 22:42:17;;;;;;;14.53;9.37;;;11.40;98.30;;;;;;5217835;22;20434;-83
2021/10/29 22:44:20;;;;;;;13.03;10.70;;;11.40;98.30;;;;;;5225985;22;20770;-83
2021/10/29 22:46:23;;;;;;;12.43;10.07;;;11.30;98.30;;;;;;5226766;22;20988;-82
2021/10/29 22:48:27;;;;;;;14.17;10.23;;;11.30;98.30;;;;;;5226714;22;20854;-82
2021/10/29 22:50:31;;;;;;;10.20;8.80;;;11.30;98.30;;;;;;5226567;22;20425;-83
2021/10/29 22:52:34;;;;;;;12.93;9.17;;;11.30;98.30;;;;;;5218536;22;20930;-82
2021/10/29 22:54:38;;;;;;;16.03;10.70;;;11.30;98.30;;;;;;5217818;22;20456;-83
2021/10/29 22:56:41;;;;;;;10.90;8.80;;;11.20;98.30;;;;;;5217954;22;20749;-83
2021/10/29 22:58:46;;;;;;;12.53;9.00;;;11.30;98.30;;;;;;5226884;22;20502;-83
2021/10/29 23:00:50;;;;;;;14.73;9.40;;;11.30;98.30;;;;;;5226874;22;20730;-83
2021/10/29 23:02:54;;;;;;;10.60;9.50;;;11.30;98.30;;;;;;5222449;22;20530;-82
2021/10/29 23:04:59;;;;;;;13.57;10.07;;;11.30;98.30;;;;;;5217979;22;20465;-82
2021/10/29 23:07:02;;;;;;;16.47;9.30;;;11.30;98.30;;;;;;5226294;22;20950;-82
2021/10/29 23:09:08;;;;;;;12.30;9.80;;;11.40;98.30;;;;;;5226655;22;20445;-82
2021/10/29 23:11:11;;;;;;;9.37;8.37;;;11.40;98.30;;;;;;5226398;22;20445;-83
2021/10/29 23:13:14;;;;;;;10.90;9.10;;;11.40;98.30;;;;;;5218085;22;20924;-83
2021/10/29 23:15:17;;;;;;;11.10;9.90;;;11.40;98.30;;;;;;5226116;22;21031;-82
2021/10/29 23:17:20;;;;;;;14.50;9.60;;;11.30;98.30;;;;;;5225806;22;20750;-83
2021/10/29 23:19:23;;;;;;;13.17;9.77;;;11.40;98.30;;;;;;5218031;22;20431;-82
2021/10/29 23:21:27;;;;;;;10.93;8.60;;;11.40;98.30;;;;;;5218210;22;20432;-82
2021/10/29 23:23:30;;;;;;;12.93;9.23;;;11.40;98.30;;;;;;5218158;22;20521;-83
2021/10/29 23:25:33;;;;;;;9.70;8.33;;;11.50;98.30;;;;;;5226594;22;20474;-82
2021/10/29 23:27:36;;;;;;;14.73;9.37;;;11.50;98.30;;;;;;5217606;22;20540;-83
2021/10/29 23:29:39;;;;;;;15.33;9.13;;;11.50;98.30;;;;;;5226074;22;20415;-82
2021/10/29 23:31:41;;;;;;;9.73;8.73;;;11.50;98.30;;;;;;5225953;22;20415;-82
2021/10/29 23:33:44;;;;;;;11.23;8.60;;;11.50;98.30;;;;;;5217544;22;20434;-82
2021/10/29 23:35:47;;;;;;;11.73;8.90;;;11.60;98.30;;;;;;5218218;22;20447;-82
2021/10/29 23:37:52;;;;;;;9.87;8.87;;;11.60;98.30;;;;;;5226705;22;20418;-82
2021/10/29 23:39:54;;;;;;;11.97;7.97;;;11.60;98.30;;;;;;5226722;22;20434;-82
2021/10/29 23:41:57;;;;;;;11.97;8.47;;;11.60;98.30;;;;;;5217744;22;20426;-82
2021/10/29 23:44:00;;;;;;;10.63;8.00;;;11.50;98.30;;;;;;5217583;22;20442;-82
2021/10/29 23:46:03;;;;;;;10.67;9.20;;;11.50;98.30;;;;;;5226690;22;20444;-83
2021/10/29 23:48:07;;;;;;;12.77;7.90;;;11.50;98.30;;;;;;5227016;22;20481;-82
2021/10/29 23:50:10;;;;;;;11.30;8.90;;;11.50;98.30;;;;;;5218466;22;20431;-82
2021/10/29 23:52:13;;;;;;;10.57;8.33;;;11.40;98.30;;;;;;5226791;22;20876;-80
2021/10/29 23:54:17;;;;;;;11.70;8.60;;;11.50;98.30;;;;;;5225889;22;20414;-82
2021/10/29 23:56:20;;;;;;;10.20;8.13;;;11.50;98.30;;;;;;5225652;22;20541;-81
2021/10/29 23:58:23;;;;;;;11.27;9.10;;;11.50;98.30;;;;;;5225399;22;20430;-81
